Artern, Germany

9:29 AM CEST on September 01, 2014 (GMT +0200)
ISACHSEN47 | Change Station
CLOSE
Current Station
Personal Weather Station
Location: Sangerhausen, SACHSEN-ANHALT
Elevation: 758 ft
Nearby Weather Stations

Elev 758 ft 51.49 °N, 11.29 °E | Updated 29 minutes ago

Scattered Clouds
Scattered Clouds
56.8 °F
Feels Like 56.8 °F
N
0.0
Wind Variable Wind from South
Gusts 0.0 mph

Today
High -- | Low -- °F
--% Chance of Precip.
Yesterday
High -- | Low -- °F
Precip. -- in
6:27 AM 8:01 PM
Waxing Crescent, 38% visible
Pressure 30.06 in
Visibility 6.2 miles
Clouds Scattered Clouds 800 ft
Scattered Clouds 2800 ft
Dew Point 53 °F
Humidity 88%
Rainfall 0.00 in
Snow Depth Not available.
UV 1.0 out of 12
Pollen Not available.
Air Quality Not available.
Flu Activity Not available.
METAR EDDE 010720Z 29009KT 9999 SCT008 SCT028 13/11 Q1018 TEMPO BKN008

More Conditions Fewer Conditions

Pressure 30.06 in
Visibility 6.2 miles
Clouds Scattered Clouds 800 ft
Scattered Clouds 2800 ft
Dew Point 53 °F
Humidity 88%
Rainfall 0.00 in
Snow Depth Not available.
UV 1.0 out of 12
Pollen Not available.
Air Quality Not available.
Flu Activity Not available.
METAR EDDE 010720Z 29009KT 9999 SCT008 SCT028 13/11 Q1018 TEMPO BKN008

More Conditions Fewer Conditions

10-Day Weather Forecast

Almanac

Astronomy

Sep. 01, 2014 Rise Set
Actual Time 6:27 AM CEST 8:01 PM CEST
Civil Twilight 5:52 AM CEST 8:36 PM CEST
Nautical Twilight 5:09 AM CEST 9:18 PM CEST
Astronomical Twilight 4:22 AM CEST 10:05 PM CEST
Moon 1:42 PM CEST 11:02 PM CEST
Length of Visible Light 14h 43m
Length of Day
13h 34m
Tomorrow will be 3m 48s shorter.
Waxing Crescent, 38% of the Moon is Illuminated
Today
Waxing Crescent
Sep 2
First Quarter
Sep 8
Full
Sep 15
Last Quarter
Sep 24
New

Yesterday's Extremes

Country Highs Country Lows

Community

WunderPhotos

Upload Photos

1,749,154 photos uploaded!

Nearby

Snow Depth

Not available.

Earthquake Activity

City Distance Mag. Time & Date
No recent earthquake activity has been reported nearby.
Minimum magnitude displayed is 2.5.

Coastal Water Temperatures

Place Temperature
No Stations Reporting

Nearby Weather Stations